sensor_id;sensor_type;location;lat;lon;timestamp;temperature;humidity
20483;DHT22;10400;53.198;6.592;2024-01-07T00:02:25;1.00;99.90
20483;DHT22;10400;53.198;6.592;2024-01-07T00:04:50;1.00;99.90
20483;DHT22;10400;53.198;6.592;2024-01-07T00:07:16;1.00;99.90
20483;DHT22;10400;53.198;6.592;2024-01-07T00:09:42;1.00;99.90
20483;DHT22;10400;53.198;6.592;2024-01-07T00:12:08;1.00;99.90
20483;DHT22;10400;53.198;6.592;2024-01-07T00:14:33;0.90;99.90
20483;DHT22;10400;53.198;6.592;2024-01-07T00:16:59;1.00;99.90
20483;DHT22;10400;53.198;6.592;2024-01-07T00:19:25;1.00;99.90
20483;DHT22;10400;53.198;6.592;2024-01-07T00:21:50;1.00;99.90
20483;DHT22;10400;53.198;6.592;2024-01-07T00:24:16;1.00;99.90
20483;DHT22;10400;53.198;6.592;2024-01-07T00:26:42;1.00;99.90
20483;DHT22;10400;53.198;6.592;2024-01-07T00:29:07;1.00;99.90
20483;DHT22;10400;53.198;6.592;2024-01-07T00:31:33;0.90;99.90
20483;DHT22;10400;53.198;6.592;2024-01-07T00:33:58;1.00;99.90
20483;DHT22;10400;53.198;6.592;2024-01-07T00:36:24;0.90;99.90
20483;DHT22;10400;53.198;6.592;2024-01-07T00:38:50;0.80;99.90
20483;DHT22;10400;53.198;6.592;2024-01-07T00:41:15;0.80;99.90
20483;DHT22;10400;53.198;6.592;2024-01-07T00:43:41;0.80;99.90
20483;DHT22;10400;53.198;6.592;2024-01-07T00:46:07;0.80;99.90
20483;DHT22;10400;53.198;6.592;2024-01-07T00:48:32;0.80;99.90
20483;DHT22;10400;53.198;6.592;2024-01-07T00:50:58;0.80;99.90
20483;DHT22;10400;53.198;6.592;2024-01-07T00:53:24;0.90;99.90
20483;DHT22;10400;53.198;6.592;2024-01-07T00:55:49;0.90;99.90
20483;DHT22;10400;53.198;6.592;2024-01-07T00:58:15;0.90;99.90
20483;DHT22;10400;53.198;6.592;2024-01-07T01:00:41;0.90;99.90
20483;DHT22;10400;53.198;6.592;2024-01-07T01:03:06;0.90;99.90
20483;DHT22;10400;53.198;6.592;2024-01-07T01:05:32;1.00;99.90
20483;DHT22;10400;53.198;6.592;2024-01-07T01:07:58;0.90;99.90
20483;DHT22;10400;53.198;6.592;2024-01-07T01:10:24;1.00;99.90
20483;DHT22;10400;53.198;6.592;2024-01-07T01:12:49;1.10;99.90
20483;DHT22;10400;53.198;6.592;2024-01-07T01:15:17;1.10;99.90
20483;DHT22;10400;53.198;6.592;2024-01-07T01:17:43;1.10;99.90
20483;DHT22;10400;53.198;6.592;2024-01-07T01:20:09;1.10;99.90
20483;DHT22;10400;53.198;6.592;2024-01-07T01:22:35;1.10;99.90
20483;DHT22;10400;53.198;6.592;2024-01-07T01:25:00;1.10;99.90
20483;DHT22;10400;53.198;6.592;2024-01-07T01:27:27;1.10;99.90
20483;DHT22;10400;53.198;6.592;2024-01-07T01:29:52;1.00;99.90
20483;DHT22;10400;53.198;6.592;2024-01-07T01:32:18;0.90;99.90
20483;DHT22;10400;53.198;6.592;2024-01-07T01:34:44;0.90;99.90
20483;DHT22;10400;53.198;6.592;2024-01-07T01:37:09;0.90;99.90
20483;DHT22;10400;53.198;6.592;2024-01-07T01:39:35;0.90;99.90
20483;DHT22;10400;53.198;6.592;2024-01-07T01:42:01;0.80;99.90
20483;DHT22;10400;53.198;6.592;2024-01-07T01:44:26;0.90;99.90
20483;DHT22;10400;53.198;6.592;2024-01-07T01:46:57;0.80;99.90
20483;DHT22;10400;53.198;6.592;2024-01-07T01:49:24;0.80;99.90
20483;DHT22;10400;53.198;6.592;2024-01-07T01:51:50;0.80;99.90
20483;DHT22;10400;53.198;6.592;2024-01-07T01:54:17;0.80;99.90
20483;DHT22;10400;53.198;6.592;2024-01-07T01:56:43;0.80;99.90
20483;DHT22;10400;53.198;6.592;2024-01-07T01:59:09;0.80;99.90
20483;DHT22;10400;53.198;6.592;2024-01-07T02:01:35;0.70;99.90
20483;DHT22;10400;53.198;6.592;2024-01-07T02:04:00;0.80;99.90
20483;DHT22;10400;53.198;6.592;2024-01-07T02:06:26;0.80;99.90
20483;DHT22;10400;53.198;6.592;2024-01-07T02:08:52;0.80;99.90
20483;DHT22;10400;53.198;6.592;2024-01-07T02:11:19;0.80;99.90
20483;DHT22;10400;53.198;6.592;2024-01-07T02:13:45;0.70;99.90
20483;DHT22;10400;53.198;6.592;2024-01-07T02:16:11;0.80;99.90
20483;DHT22;10400;53.198;6.592;2024-01-07T02:18:46;0.80;99.90
20483;DHT22;10400;53.198;6.592;2024-01-07T02:21:13;0.90;99.90
20483;DHT22;10400;53.198;6.592;2024-01-07T02:23:39;0.90;99.90
20483;DHT22;10400;53.198;6.592;2024-01-07T02:26:05;0.80;99.90
20483;DHT22;10400;53.198;6.592;2024-01-07T02:28:32;0.80;99.90
20483;DHT22;10400;53.198;6.592;2024-01-07T02:30:58;0.80;99.90
20483;DHT22;10400;53.198;6.592;2024-01-07T02:33:23;0.80;99.90
20483;DHT22;10400;53.198;6.592;2024-01-07T02:35:49;0.80;99.90
20483;DHT22;10400;53.198;6.592;2024-01-07T02:38:15;0.80;99.90
20483;DHT22;10400;53.198;6.592;2024-01-07T02:40:41;0.80;99.90
20483;DHT22;10400;53.198;6.592;2024-01-07T02:43:06;0.80;99.90
20483;DHT22;10400;53.198;6.592;2024-01-07T02:45:32;0.90;99.90
20483;DHT22;10400;53.198;6.592;2024-01-07T02:47:58;0.80;99.90
20483;DHT22;10400;53.198;6.592;2024-01-07T02:50:23;0.80;99.90
20483;DHT22;10400;53.198;6.592;2024-01-07T02:52:49;0.80;99.90
20483;DHT22;10400;53.198;6.592;2024-01-07T02:55:15;0.80;99.90
20483;DHT22;10400;53.198;6.592;2024-01-07T02:57:40;0.80;99.90
20483;DHT22;10400;53.198;6.592;2024-01-07T03:00:06;0.80;99.90
20483;DHT22;10400;53.198;6.592;2024-01-07T03:02:33;0.80;99.90
20483;DHT22;10400;53.198;6.592;2024-01-07T03:04:59;0.80;99.90
20483;DHT22;10400;53.198;6.592;2024-01-07T03:07:25;0.80;99.90
20483;DHT22;10400;53.198;6.592;2024-01-07T03:09:50;0.80;99.90
20483;DHT22;10400;53.198;6.592;2024-01-07T03:12:16;0.90;99.90
20483;DHT22;10400;53.198;6.592;2024-01-07T03:14:42;0.80;99.90
20483;DHT22;10400;53.198;6.592;2024-01-07T03:17:09;0.90;99.90
20483;DHT22;10400;53.198;6.592;2024-01-07T03:19:34;0.80;99.90
20483;DHT22;10400;53.198;6.592;2024-01-07T03:22:00;0.90;99.90
20483;DHT22;10400;53.198;6.592;2024-01-07T03:24:25;0.90;99.90
20483;DHT22;10400;53.198;6.592;2024-01-07T03:26:51;0.90;99.90
20483;DHT22;10400;53.198;6.592;2024-01-07T03:29:17;0.90;99.90
20483;DHT22;10400;53.198;6.592;2024-01-07T03:31:42;0.90;99.90
20483;DHT22;10400;53.198;6.592;2024-01-07T03:34:08;0.90;99.90
20483;DHT22;10400;53.198;6.592;2024-01-07T03:36:34;0.90;99.90
20483;DHT22;10400;53.198;6.592;2024-01-07T03:38:59;0.90;99.90
20483;DHT22;10400;53.198;6.592;2024-01-07T03:41:25;0.90;99.90
20483;DHT22;10400;53.198;6.592;2024-01-07T03:43:51;0.80;99.90
20483;DHT22;10400;53.198;6.592;2024-01-07T03:46:18;0.90;99.90
20483;DHT22;10400;53.198;6.592;2024-01-07T03:48:44;0.80;99.90
20483;DHT22;10400;53.198;6.592;2024-01-07T03:51:10;0.80;99.90
20483;DHT22;10400;53.198;6.592;2024-01-07T03:53:36;0.80;99.90
20483;DHT22;10400;53.198;6.592;2024-01-07T03:56:01;0.80;99.90
20483;DHT22;10400;53.198;6.592;2024-01-07T03:58:27;0.80;99.90
20483;DHT22;10400;53.198;6.592;2024-01-07T04:00:53;0.80;99.90
20483;DHT22;10400;53.198;6.592;2024-01-07T04:03:18;0.70;99.90
20483;DHT22;10400;53.198;6.592;2024-01-07T04:05:44;0.80;99.90
20483;DHT22;10400;53.198;6.592;2024-01-07T04:08:13;0.80;99.90
20483;DHT22;10400;53.198;6.592;2024-01-07T04:10:41;0.80;99.90
20483;DHT22;10400;53.198;6.592;2024-01-07T04:13:07;0.80;99.90
20483;DHT22;10400;53.198;6.592;2024-01-07T04:15:33;0.80;99.90
20483;DHT22;10400;53.198;6.592;2024-01-07T04:18:01;0.90;99.90
20483;DHT22;10400;53.198;6.592;2024-01-07T04:20:28;0.90;99.90
20483;DHT22;10400;53.198;6.592;2024-01-07T04:22:54;0.80;99.90
20483;DHT22;10400;53.198;6.592;2024-01-07T04:25:19;0.90;99.90
20483;DHT22;10400;53.198;6.592;2024-01-07T04:27:45;0.90;99.90
20483;DHT22;10400;53.198;6.592;2024-01-07T04:30:11;0.80;99.90
20483;DHT22;10400;53.198;6.592;2024-01-07T04:32:36;0.80;99.90
20483;DHT22;10400;53.198;6.592;2024-01-07T04:35:02;0.80;99.90
20483;DHT22;10400;53.198;6.592;2024-01-07T04:37:28;0.80;99.90
20483;DHT22;10400;53.198;6.592;2024-01-07T04:39:54;0.90;99.90
20483;DHT22;10400;53.198;6.592;2024-01-07T04:42:19;0.90;99.90
20483;DHT22;10400;53.198;6.592;2024-01-07T04:44:45;0.90;99.90
20483;DHT22;10400;53.198;6.592;2024-01-07T04:47:31;0.90;99.90
20483;DHT22;10400;53.198;6.592;2024-01-07T04:49:57;0.90;99.90
20483;DHT22;10400;53.198;6.592;2024-01-07T04:52:24;0.90;99.90
20483;DHT22;10400;53.198;6.592;2024-01-07T04:54:54;0.90;99.90
20483;DHT22;10400;53.198;6.592;2024-01-07T04:57:20;1.00;99.90
20483;DHT22;10400;53.198;6.592;2024-01-07T04:59:46;0.90;99.90
20483;DHT22;10400;53.198;6.592;2024-01-07T05:02:12;1.00;99.90
20483;DHT22;10400;53.198;6.592;2024-01-07T05:04:38;1.00;99.90
20483;DHT22;10400;53.198;6.592;2024-01-07T05:07:04;1.00;99.90
20483;DHT22;10400;53.198;6.592;2024-01-07T05:09:31;1.00;99.90
20483;DHT22;10400;53.198;6.592;2024-01-07T05:11:57;0.90;99.90
20483;DHT22;10400;53.198;6.592;2024-01-07T05:14:22;0.90;99.90
20483;DHT22;10400;53.198;6.592;2024-01-07T05:16:48;1.00;99.90
20483;DHT22;10400;53.198;6.592;2024-01-07T05:19:14;1.10;99.90
20483;DHT22;10400;53.198;6.592;2024-01-07T05:21:39;0.90;99.90
20483;DHT22;10400;53.198;6.592;2024-01-07T05:24:05;1.00;99.90
20483;DHT22;10400;53.198;6.592;2024-01-07T05:26:37;0.90;99.90
20483;DHT22;10400;53.198;6.592;2024-01-07T05:29:03;0.90;99.90
20483;DHT22;10400;53.198;6.592;2024-01-07T05:31:28;0.90;99.90
20483;DHT22;10400;53.198;6.592;2024-01-07T05:33:54;1.00;99.90
20483;DHT22;10400;53.198;6.592;2024-01-07T05:36:21;0.90;99.90
20483;DHT22;10400;53.198;6.592;2024-01-07T05:38:47;1.00;99.90
20483;DHT22;10400;53.198;6.592;2024-01-07T05:41:12;1.00;99.90
20483;DHT22;10400;53.198;6.592;2024-01-07T05:43:38;0.90;99.90
20483;DHT22;10400;53.198;6.592;2024-01-07T05:46:04;0.90;99.90
20483;DHT22;10400;53.198;6.592;2024-01-07T05:48:29;0.90;99.90
20483;DHT22;10400;53.198;6.592;2024-01-07T05:50:55;0.90;99.90
20483;DHT22;10400;53.198;6.592;2024-01-07T05:53:20;0.90;99.90
20483;DHT22;10400;53.198;6.592;2024-01-07T05:55:46;0.90;99.90
20483;DHT22;10400;53.198;6.592;2024-01-07T05:58:12;0.90;99.90
20483;DHT22;10400;53.198;6.592;2024-01-07T06:00:38;1.00;99.90
20483;DHT22;10400;53.198;6.592;2024-01-07T06:03:04;1.00;99.90
20483;DHT22;10400;53.198;6.592;2024-01-07T06:05:29;0.90;99.90
20483;DHT22;10400;53.198;6.592;2024-01-07T06:07:55;1.00;99.90
20483;DHT22;10400;53.198;6.592;2024-01-07T06:10:21;1.00;99.90
20483;DHT22;10400;53.198;6.592;2024-01-07T06:12:46;1.00;99.90
20483;DHT22;10400;53.198;6.592;2024-01-07T06:15:12;1.00;99.90
20483;DHT22;10400;53.198;6.592;2024-01-07T06:17:38;0.90;99.90
20483;DHT22;10400;53.198;6.592;2024-01-07T06:20:04;1.00;99.90
20483;DHT22;10400;53.198;6.592;2024-01-07T06:22:31;1.00;99.90
20483;DHT22;10400;53.198;6.592;2024-01-07T06:24:56;1.00;99.90
20483;DHT22;10400;53.198;6.592;2024-01-07T06:27:22;1.00;99.90
20483;DHT22;10400;53.198;6.592;2024-01-07T06:29:47;1.00;99.90
20483;DHT22;10400;53.198;6.592;2024-01-07T06:32:13;1.00;99.90
20483;DHT22;10400;53.198;6.592;2024-01-07T06:34:39;1.00;99.90
20483;DHT22;10400;53.198;6.592;2024-01-07T06:37:05;1.00;99.90
20483;DHT22;10400;53.198;6.592;2024-01-07T06:39:31;0.90;99.90
20483;DHT22;10400;53.198;6.592;2024-01-07T06:41:57;0.90;99.90
20483;DHT22;10400;53.198;6.592;2024-01-07T06:44:23;0.90;99.90
20483;DHT22;10400;53.198;6.592;2024-01-07T06:46:48;0.90;99.90
20483;DHT22;10400;53.198;6.592;2024-01-07T06:49:14;0.90;99.90
20483;DHT22;10400;53.198;6.592;2024-01-07T06:51:39;0.90;99.90
20483;DHT22;10400;53.198;6.592;2024-01-07T06:54:05;0.80;99.90
20483;DHT22;10400;53.198;6.592;2024-01-07T06:56:31;0.90;99.90
20483;DHT22;10400;53.198;6.592;2024-01-07T06:58:57;0.80;99.90
20483;DHT22;10400;53.198;6.592;2024-01-07T07:01:23;0.80;99.90
20483;DHT22;10400;53.198;6.592;2024-01-07T07:03:49;0.90;99.90
20483;DHT22;10400;53.198;6.592;2024-01-07T07:06:15;0.80;99.90
20483;DHT22;10400;53.198;6.592;2024-01-07T07:08:41;0.90;99.90
20483;DHT22;10400;53.198;6.592;2024-01-07T07:11:07;0.80;99.90
20483;DHT22;10400;53.198;6.592;2024-01-07T07:13:33;0.70;99.90
20483;DHT22;10400;53.198;6.592;2024-01-07T07:15:59;0.70;99.90
20483;DHT22;10400;53.198;6.592;2024-01-07T07:18:25;0.70;99.90
20483;DHT22;10400;53.198;6.592;2024-01-07T07:20:50;0.70;99.90
20483;DHT22;10400;53.198;6.592;2024-01-07T07:23:16;0.60;99.90
20483;DHT22;10400;53.198;6.592;2024-01-07T07:25:42;0.60;99.90
20483;DHT22;10400;53.198;6.592;2024-01-07T07:28:08;0.60;99.90
20483;DHT22;10400;53.198;6.592;2024-01-07T07:30:33;0.60;99.90
20483;DHT22;10400;53.198;6.592;2024-01-07T07:32:59;0.50;99.90
20483;DHT22;10400;53.198;6.592;2024-01-07T07:35:24;0.50;99.90
20483;DHT22;10400;53.198;6.592;2024-01-07T07:37:50;0.50;99.90
20483;DHT22;10400;53.198;6.592;2024-01-07T07:40:16;0.40;99.90
20483;DHT22;10400;53.198;6.592;2024-01-07T07:42:41;0.40;99.90
20483;DHT22;10400;53.198;6.592;2024-01-07T07:45:07;0.40;99.90
20483;DHT22;10400;53.198;6.592;2024-01-07T07:47:33;0.40;99.90
20483;DHT22;10400;53.198;6.592;2024-01-07T07:49:59;0.40;99.90
20483;DHT22;10400;53.198;6.592;2024-01-07T07:52:25;0.30;99.90
20483;DHT22;10400;53.198;6.592;2024-01-07T07:54:54;0.40;99.90
20483;DHT22;10400;53.198;6.592;2024-01-07T07:57:20;0.40;99.90
20483;DHT22;10400;53.198;6.592;2024-01-07T07:59:49;0.40;99.90
20483;DHT22;10400;53.198;6.592;2024-01-07T08:02:15;0.40;99.90
20483;DHT22;10400;53.198;6.592;2024-01-07T08:04:41;0.40;99.90
20483;DHT22;10400;53.198;6.592;2024-01-07T08:07:08;0.50;99.90
20483;DHT22;10400;53.198;6.592;2024-01-07T08:09:34;0.50;99.90
20483;DHT22;10400;53.198;6.592;2024-01-07T08:12:02;0.60;99.90
20483;DHT22;10400;53.198;6.592;2024-01-07T08:14:28;0.60;99.90
20483;DHT22;10400;53.198;6.592;2024-01-07T08:16:54;0.60;99.90
20483;DHT22;10400;53.198;6.592;2024-01-07T08:19:20;0.70;99.90
20483;DHT22;10400;53.198;6.592;2024-01-07T08:21:46;0.70;99.90
20483;DHT22;10400;53.198;6.592;2024-01-07T08:24:11;0.80;99.90
20483;DHT22;10400;53.198;6.592;2024-01-07T08:26:37;0.80;99.90
20483;DHT22;10400;53.198;6.592;2024-01-07T08:29:03;0.80;99.90
20483;DHT22;10400;53.198;6.592;2024-01-07T08:31:30;0.80;99.90
20483;DHT22;10400;53.198;6.592;2024-01-07T08:33:56;0.80;97.30
20483;DHT22;10400;53.198;6.592;2024-01-07T08:36:21;0.90;94.00
20483;DHT22;10400;53.198;6.592;2024-01-07T08:38:47;0.90;92.50
20483;DHT22;10400;53.198;6.592;2024-01-07T08:41:15;0.90;95.70
20483;DHT22;10400;53.198;6.592;2024-01-07T08:43:41;1.00;99.90
20483;DHT22;10400;53.198;6.592;2024-01-07T08:46:07;1.00;93.70
20483;DHT22;10400;53.198;6.592;2024-01-07T08:48:32;1.00;94.60
20483;DHT22;10400;53.198;6.592;2024-01-07T08:50:58;1.00;93.90
20483;DHT22;10400;53.198;6.592;2024-01-07T08:53:24;1.10;96.40
20483;DHT22;10400;53.198;6.592;2024-01-07T08:55:49;1.10;95.00
20483;DHT22;10400;53.198;6.592;2024-01-07T08:58:15;1.00;90.60
20483;DHT22;10400;53.198;6.592;2024-01-07T09:00:41;1.10;93.40
20483;DHT22;10400;53.198;6.592;2024-01-07T09:03:07;1.10;80.10
20483;DHT22;10400;53.198;6.592;2024-01-07T09:05:33;1.10;85.20
20483;DHT22;10400;53.198;6.592;2024-01-07T09:07:58;1.10;83.10
20483;DHT22;10400;53.198;6.592;2024-01-07T09:10:24;1.20;90.90
20483;DHT22;10400;53.198;6.592;2024-01-07T09:12:50;1.20;83.60
20483;DHT22;10400;53.198;6.592;2024-01-07T09:15:19;1.20;82.00
20483;DHT22;10400;53.198;6.592;2024-01-07T09:17:46;1.30;89.50
20483;DHT22;10400;53.198;6.592;2024-01-07T09:20:12;1.30;90.40
20483;DHT22;10400;53.198;6.592;2024-01-07T09:22:38;1.30;76.20
20483;DHT22;10400;53.198;6.592;2024-01-07T09:25:05;1.30;64.50
20483;DHT22;10400;53.198;6.592;2024-01-07T09:27:33;1.30;67.00
20483;DHT22;10400;53.198;6.592;2024-01-07T09:29:59;1.30;73.40
20483;DHT22;10400;53.198;6.592;2024-01-07T09:32:25;1.30;73.50
20483;DHT22;10400;53.198;6.592;2024-01-07T09:34:51;1.30;72.50
20483;DHT22;10400;53.198;6.592;2024-01-07T09:37:17;1.30;76.20
20483;DHT22;10400;53.198;6.592;2024-01-07T09:39:43;1.40;74.50
20483;DHT22;10400;53.198;6.592;2024-01-07T09:42:15;1.40;69.80
20483;DHT22;10400;53.198;6.592;2024-01-07T09:44:41;1.40;73.00
20483;DHT22;10400;53.198;6.592;2024-01-07T09:47:11;1.40;67.90
20483;DHT22;10400;53.198;6.592;2024-01-07T09:49:41;1.40;72.60
20483;DHT22;10400;53.198;6.592;2024-01-07T09:52:09;1.50;79.50
20483;DHT22;10400;53.198;6.592;2024-01-07T09:54:39;1.50;77.00
20483;DHT22;10400;53.198;6.592;2024-01-07T09:57:07;1.50;81.80
20483;DHT22;10400;53.198;6.592;2024-01-07T09:59:33;1.50;82.20
20483;DHT22;10400;53.198;6.592;2024-01-07T10:01:59;1.60;90.10
20483;DHT22;10400;53.198;6.592;2024-01-07T10:04:25;1.60;91.10
20483;DHT22;10400;53.198;6.592;2024-01-07T10:06:53;1.70;92.20
20483;DHT22;10400;53.198;6.592;2024-01-07T10:09:21;1.70;89.70
20483;DHT22;10400;53.198;6.592;2024-01-07T10:11:47;1.70;86.30
20483;DHT22;10400;53.198;6.592;2024-01-07T10:14:13;1.80;89.80
20483;DHT22;10400;53.198;6.592;2024-01-07T10:16:39;1.80;91.40
20483;DHT22;10400;53.198;6.592;2024-01-07T10:19:05;1.90;93.60
20483;DHT22;10400;53.198;6.592;2024-01-07T10:21:30;1.90;88.10
20483;DHT22;10400;53.198;6.592;2024-01-07T10:24:10;1.90;70.00
20483;DHT22;10400;53.198;6.592;2024-01-07T10:26:38;1.90;45.90
20483;DHT22;10400;53.198;6.592;2024-01-07T10:29:04;1.80;42.10
20483;DHT22;10400;53.198;6.592;2024-01-07T10:31:30;1.80;44.10
20483;DHT22;10400;53.198;6.592;2024-01-07T10:33:57;1.80;42.40
20483;DHT22;10400;53.198;6.592;2024-01-07T10:36:24;1.80;44.50
20483;DHT22;10400;53.198;6.592;2024-01-07T10:38:50;1.80;41.80
20483;DHT22;10400;53.198;6.592;2024-01-07T10:41:18;1.80;42.50
20483;DHT22;10400;53.198;6.592;2024-01-07T10:43:47;2.00;45.10
20483;DHT22;10400;53.198;6.592;2024-01-07T10:46:14;2.00;44.50
20483;DHT22;10400;53.198;6.592;2024-01-07T10:49:00;2.10;47.20
20483;DHT22;10400;53.198;6.592;2024-01-07T10:51:33;2.10;41.70
20483;DHT22;10400;53.198;6.592;2024-01-07T10:53:59;2.20;20.30
20483;DHT22;10400;53.198;6.592;2024-01-07T10:56:38;2.20;21.60
20483;DHT22;10400;53.198;6.592;2024-01-07T10:59:05;2.30;24.40
20483;DHT22;10400;53.198;6.592;2024-01-07T11:01:31;2.20;17.40
20483;DHT22;10400;53.198;6.592;2024-01-07T11:07:12;2.10;25.10
20483;DHT22;10400;53.198;6.592;2024-01-07T11:10:00;2.10;30.80
20483;DHT22;10400;53.198;6.592;2024-01-07T11:12:31;2.10;33.00
20483;DHT22;10400;53.198;6.592;2024-01-07T11:14:57;2.10;42.30
20483;DHT22;10400;53.198;6.592;2024-01-07T11:20:02;2.30;50.30
20483;DHT22;10400;53.198;6.592;2024-01-07T11:22:28;2.40;39.50
20483;DHT22;10400;53.198;6.592;2024-01-07T11:24:58;2.30;44.70
20483;DHT22;10400;53.198;6.592;2024-01-07T11:27:25;2.20;59.70
20483;DHT22;10400;53.198;6.592;2024-01-07T11:29:57;2.10;75.70
20483;DHT22;10400;53.198;6.592;2024-01-07T11:32:24;2.00;86.90
20483;DHT22;10400;53.198;6.592;2024-01-07T11:36:55;1.90;99.90
20483;DHT22;10400;53.198;6.592;2024-01-07T11:39:20;2.00;99.90
20483;DHT22;10400;53.198;6.592;2024-01-07T11:41:46;2.00;99.90
20483;DHT22;10400;53.198;6.592;2024-01-07T11:44:12;2.00;99.90
20483;DHT22;10400;53.198;6.592;2024-01-07T11:46:40;2.10;99.90
20483;DHT22;10400;53.198;6.592;2024-01-07T11:49:08;2.00;99.90
20483;DHT22;10400;53.198;6.592;2024-01-07T11:51:34;2.10;99.90
20483;DHT22;10400;53.198;6.592;2024-01-07T11:54:01;2.10;99.90
20483;DHT22;10400;53.198;6.592;2024-01-07T11:56:28;2.10;99.90
20483;DHT22;10400;53.198;6.592;2024-01-07T11:58:54;2.10;98.70
20483;DHT22;10400;53.198;6.592;2024-01-07T12:01:21;2.20;99.90
20483;DHT22;10400;53.198;6.592;2024-01-07T12:03:47;2.20;99.90
20483;DHT22;10400;53.198;6.592;2024-01-07T12:06:13;2.20;99.90
20483;DHT22;10400;53.198;6.592;2024-01-07T12:08:43;2.20;99.90
20483;DHT22;10400;53.198;6.592;2024-01-07T12:11:10;2.20;99.90
20483;DHT22;10400;53.198;6.592;2024-01-07T12:13:37;2.20;99.90
20483;DHT22;10400;53.198;6.592;2024-01-07T12:16:04;2.10;99.90
20483;DHT22;10400;53.198;6.592;2024-01-07T12:18:30;2.10;99.90
20483;DHT22;10400;53.198;6.592;2024-01-07T12:20:58;2.10;99.90
20483;DHT22;10400;53.198;6.592;2024-01-07T12:23:25;2.20;99.90
20483;DHT22;10400;53.198;6.592;2024-01-07T12:25:52;2.10;99.90
20483;DHT22;10400;53.198;6.592;2024-01-07T12:28:18;2.10;99.90
20483;DHT22;10400;53.198;6.592;2024-01-07T12:30:44;2.20;99.90
20483;DHT22;10400;53.198;6.592;2024-01-07T12:33:10;2.10;99.90
20483;DHT22;10400;53.198;6.592;2024-01-07T12:35:36;2.00;99.90
20483;DHT22;10400;53.198;6.592;2024-01-07T12:38:02;2.00;99.90
20483;DHT22;10400;53.198;6.592;2024-01-07T12:40:28;2.00;99.90
20483;DHT22;10400;53.198;6.592;2024-01-07T12:42:53;2.00;99.90
20483;DHT22;10400;53.198;6.592;2024-01-07T12:45:19;2.00;99.90
20483;DHT22;10400;53.198;6.592;2024-01-07T12:47:45;2.00;99.90
20483;DHT22;10400;53.198;6.592;2024-01-07T12:50:13;2.20;99.90
20483;DHT22;10400;53.198;6.592;2024-01-07T12:52:39;2.30;99.90
20483;DHT22;10400;53.198;6.592;2024-01-07T12:55:05;2.40;99.90
20483;DHT22;10400;53.198;6.592;2024-01-07T12:57:32;2.60;99.90
20483;DHT22;10400;53.198;6.592;2024-01-07T12:59:58;2.60;99.90
20483;DHT22;10400;53.198;6.592;2024-01-07T13:02:23;2.70;99.90
20483;DHT22;10400;53.198;6.592;2024-01-07T13:04:50;2.60;99.90
20483;DHT22;10400;53.198;6.592;2024-01-07T13:07:16;2.60;99.90
20483;DHT22;10400;53.198;6.592;2024-01-07T13:09:41;2.30;99.90
20483;DHT22;10400;53.198;6.592;2024-01-07T13:12:07;2.00;99.90
20483;DHT22;10400;53.198;6.592;2024-01-07T13:14:33;1.90;99.90
20483;DHT22;10400;53.198;6.592;2024-01-07T13:16:59;1.70;99.90
20483;DHT22;10400;53.198;6.592;2024-01-07T13:19:24;1.60;99.90
20483;DHT22;10400;53.198;6.592;2024-01-07T13:21:52;1.60;99.90
20483;DHT22;10400;53.198;6.592;2024-01-07T13:24:21;1.70;99.90
20483;DHT22;10400;53.198;6.592;2024-01-07T13:26:47;1.70;99.90
20483;DHT22;10400;53.198;6.592;2024-01-07T13:29:12;1.80;99.90
20483;DHT22;10400;53.198;6.592;2024-01-07T13:31:38;1.80;99.90
20483;DHT22;10400;53.198;6.592;2024-01-07T13:34:04;1.90;99.90
20483;DHT22;10400;53.198;6.592;2024-01-07T13:36:29;2.00;99.90
20483;DHT22;10400;53.198;6.592;2024-01-07T13:38:55;1.90;99.90
20483;DHT22;10400;53.198;6.592;2024-01-07T13:41:20;1.90;99.90
20483;DHT22;10400;53.198;6.592;2024-01-07T13:43:46;2.00;99.90
20483;DHT22;10400;53.198;6.592;2024-01-07T13:46:12;1.90;99.90
20483;DHT22;10400;53.198;6.592;2024-01-07T13:48:37;2.00;99.90
20483;DHT22;10400;53.198;6.592;2024-01-07T13:51:05;2.00;99.90
20483;DHT22;10400;53.198;6.592;2024-01-07T13:53:31;2.00;99.90
20483;DHT22;10400;53.198;6.592;2024-01-07T13:55:57;2.00;99.90
20483;DHT22;10400;53.198;6.592;2024-01-07T13:58:22;2.00;99.90
20483;DHT22;10400;53.198;6.592;2024-01-07T14:00:49;2.00;99.90
20483;DHT22;10400;53.198;6.592;2024-01-07T14:03:14;1.90;99.90
20483;DHT22;10400;53.198;6.592;2024-01-07T14:05:41;1.90;99.90
20483;DHT22;10400;53.198;6.592;2024-01-07T14:08:06;1.80;99.90
20483;DHT22;10400;53.198;6.592;2024-01-07T14:10:32;1.80;99.90
20483;DHT22;10400;53.198;6.592;2024-01-07T14:12:58;1.80;99.90
20483;DHT22;10400;53.198;6.592;2024-01-07T14:15:23;1.80;99.90
20483;DHT22;10400;53.198;6.592;2024-01-07T14:17:49;1.80;99.90
20483;DHT22;10400;53.198;6.592;2024-01-07T14:20:15;1.70;99.90
20483;DHT22;10400;53.198;6.592;2024-01-07T14:22:40;1.70;99.90
20483;DHT22;10400;53.198;6.592;2024-01-07T14:25:06;1.60;99.90
20483;DHT22;10400;53.198;6.592;2024-01-07T14:27:32;1.60;99.90
20483;DHT22;10400;53.198;6.592;2024-01-07T14:29:58;1.60;99.90
20483;DHT22;10400;53.198;6.592;2024-01-07T14:32:24;1.60;99.90
20483;DHT22;10400;53.198;6.592;2024-01-07T14:34:49;1.60;99.90
20483;DHT22;10400;53.198;6.592;2024-01-07T14:37:16;1.60;99.90
20483;DHT22;10400;53.198;6.592;2024-01-07T14:39:41;1.50;99.90
20483;DHT22;10400;53.198;6.592;2024-01-07T14:42:07;1.40;99.90
20483;DHT22;10400;53.198;6.592;2024-01-07T14:44:34;1.40;99.90
20483;DHT22;10400;53.198;6.592;2024-01-07T14:47:00;1.40;99.90
20483;DHT22;10400;53.198;6.592;2024-01-07T14:49:25;1.30;99.90
20483;DHT22;10400;53.198;6.592;2024-01-07T14:51:51;1.30;99.90
20483;DHT22;10400;53.198;6.592;2024-01-07T14:54:17;1.30;99.90
20483;DHT22;10400;53.198;6.592;2024-01-07T14:56:43;1.30;99.90
20483;DHT22;10400;53.198;6.592;2024-01-07T14:59:08;1.30;99.90
20483;DHT22;10400;53.198;6.592;2024-01-07T15:01:34;1.20;99.90
20483;DHT22;10400;53.198;6.592;2024-01-07T15:04:00;1.20;99.90
20483;DHT22;10400;53.198;6.592;2024-01-07T15:06:25;1.20;99.90
20483;DHT22;10400;53.198;6.592;2024-01-07T15:08:52;1.20;99.90
20483;DHT22;10400;53.198;6.592;2024-01-07T15:11:19;1.20;99.90
20483;DHT22;10400;53.198;6.592;2024-01-07T15:13:45;1.10;99.90
20483;DHT22;10400;53.198;6.592;2024-01-07T15:16:11;1.10;99.90
20483;DHT22;10400;53.198;6.592;2024-01-07T15:18:36;1.10;99.90
20483;DHT22;10400;53.198;6.592;2024-01-07T15:21:02;1.10;99.90
20483;DHT22;10400;53.198;6.592;2024-01-07T15:23:28;1.00;99.90
20483;DHT22;10400;53.198;6.592;2024-01-07T15:25:54;1.00;99.90
20483;DHT22;10400;53.198;6.592;2024-01-07T15:28:20;1.00;99.90
20483;DHT22;10400;53.198;6.592;2024-01-07T15:30:46;0.90;99.90
20483;DHT22;10400;53.198;6.592;2024-01-07T15:33:13;0.90;99.90
20483;DHT22;10400;53.198;6.592;2024-01-07T15:35:38;0.90;99.90
20483;DHT22;10400;53.198;6.592;2024-01-07T15:38:04;0.90;99.90
20483;DHT22;10400;53.198;6.592;2024-01-07T15:40:30;0.90;99.90
20483;DHT22;10400;53.198;6.592;2024-01-07T15:42:56;0.90;99.90
20483;DHT22;10400;53.198;6.592;2024-01-07T15:45:22;0.80;99.90
20483;DHT22;10400;53.198;6.592;2024-01-07T15:47:48;0.80;99.90